Курумоч

Карта отелей и гостиниц, располагающихся рядом с аэропортом Курумоч :

Курумоч
Самара
Самарская область 53° 30' 6.0012" N, 50° 9' 18" E
Код аэродрома ИКАО
UWWW
Код аэродрома RU
УВВВ
Координаты
N53.50167° E050.15500°
Превышение над уровнем моря
145
Основная полоса
15/33
Курс магнитный
148,5/328,5
Длина основной ВПП
3000
Ширина основной ВПП
48
Покрытие основной ВПП
Твёрдое (железобетон)
Освещение ВПП
Постоянное
Тип: 
Аэродром
Класс аэродрома: 
Международный
Принадлежность: 
ГА
Статус: 
Действующий
Сайт: 
http://airport.samara.ru/
E-mail аэродрома: 
info@uwww.aero
Страна: 
Россия
Регион: 
Самарская область
Город: 
Самара
Дополнительная информация: 
Оператор: ОАО «Международный аэропорт «Курумоч».
Погода: 

Авиационная погода в Самаре

Регион: 
Погода METAR: 
UWWW 171330Z 05005MPS 9999 FEW033 21/M01 Q1019 R33/CLRD60 NOSIG RMK QFE753/1004
Время наблюдения
2021-04-17T13:30:00Z
Температура C
21.0
Точка росы
-1.0
Направление ветра
50
Скорость ветра (узлы)
10
Метео видимость
6.21
Явления погоды
Условия полета
VFR
Аэропорт подробнее: 

Найти трансфер

С помощью этой формы Вы можете найти трансфер из аэропорта Курумоч в город, аэропорт или вокзал:

Карта места

Javascript is required to view this map.

Погода в аэропортах:

Авиационная погода в Мирном

Регион: 
Погода METAR: 
UERR 171400Z 29007G12MPS 9999 DRSN NSC M12/M21 Q0999 R25/890340 NOSIG RMK QFE719/0958
Время наблюдения
2021-04-17T14:00:00Z
Температура C
-12.0
Точка росы
-21.0
Направление ветра
290
Скорость ветра (узлы)
14
Метео видимость
6.21
Явления погоды
DRSN
Условия полета
VFR
Аэропорт подробнее: 

Авиационная погода в Брянске

Регион: 
Погода METAR: 
UUBP 171330Z 19005MPS 4100 -SHRA BKN007CB 07/07 Q1017 R16/290150 TEMPO 20005G10MPS 2100 -TSRA BKN005 BKN015CB RMK QFE744/0993
Время наблюдения
2021-04-17T13:30:00Z
Температура C
7.0
Точка росы
7.0
Направление ветра
190
Скорость ветра (узлы)
10
Метео видимость
2.55
Явления погоды
-SHRA
Условия полета
IFR
Аэропорт подробнее: 

Авиационная погода в Вадсё

Регион: 
Погода METAR: 
ENVD 171320Z 05008KT 4000 DZ BKN004 01/00 Q1032
Время наблюдения
2021-04-17T13:20:00Z
Температура C
1.0
Точка росы
0.0
Направление ветра
50
Скорость ветра (узлы)
8
Метео видимость
2.49
Явления погоды
DZ
Условия полета
LIFR

Авиационная погода в Вардё

Регион: 
Погода METAR: 
ENSS 161920Z 26018KT 9999 -RA FEW026 SCT043 03/01 Q1025 RMK WIND 500FT 27031KT
Время наблюдения
2021-04-16T19:20:00Z
Температура C
3.0
Точка росы
1.0
Направление ветра
260
Скорость ветра (узлы)
18
Метео видимость
6.21
Явления погоды
-RA
Условия полета
VFR